createdAt,value
2023-05-04T00:01:15.994Z,16.52
2023-05-04T00:03:44.006Z,16.51
2023-05-04T00:06:12.635Z,16.49
2023-05-04T00:08:40.445Z,16.47
2023-05-04T00:11:08.769Z,16.45
2023-05-04T00:13:37.223Z,16.43
2023-05-04T00:16:08.562Z,16.43
2023-05-04T00:18:38.690Z,16.39
2023-05-04T00:21:07.090Z,16.37
2023-05-04T00:23:35.163Z,16.37
2023-05-04T00:26:03.752Z,16.35
2023-05-04T00:28:31.733Z,16.33
2023-05-04T00:30:59.650Z,16.33
2023-05-04T00:33:29.080Z,16.33
2023-05-04T00:35:56.920Z,16.31
2023-05-04T00:38:24.821Z,16.30
2023-05-04T00:40:53.169Z,16.28
2023-05-04T00:43:20.958Z,16.26
2023-05-04T00:45:49.155Z,16.26
2023-05-04T00:48:17.783Z,16.24
2023-05-04T00:50:46.913Z,16.23
2023-05-04T00:53:15.149Z,16.22
2023-05-04T00:55:43.731Z,16.21
2023-05-04T00:58:11.555Z,16.18
2023-05-04T01:00:39.394Z,16.12
2023-05-04T01:03:08.043Z,16.11
2023-05-04T01:05:39.697Z,16.05
2023-05-04T01:11:11.527Z,16.01
2023-05-04T01:13:40.457Z,15.94
2023-05-04T01:16:08.546Z,15.91
2023-05-04T01:18:36.456Z,15.89
2023-05-04T01:21:04.969Z,15.86
2023-05-04T01:23:34.375Z,15.83
2023-05-04T01:26:08.819Z,15.82
2023-05-04T01:28:43.059Z,15.81
2023-05-04T01:31:13.991Z,15.79
2023-05-04T01:33:42.551Z,15.77
2023-05-04T01:36:10.517Z,15.76
2023-05-04T01:38:40.182Z,15.75
2023-05-04T01:41:07.778Z,15.78
2023-05-04T01:43:35.752Z,15.75
2023-05-04T01:46:04.201Z,15.73
2023-05-04T01:48:32.052Z,15.69
2023-05-04T01:50:59.826Z,15.67
2023-05-04T01:53:28.509Z,15.65
2023-05-04T01:55:57.650Z,15.64
2023-05-04T01:58:25.484Z,15.60
2023-05-04T02:00:53.268Z,15.57
2023-05-04T02:03:21.151Z,15.52
2023-05-04T02:05:48.943Z,15.48
2023-05-04T02:08:17.407Z,15.45
2023-05-04T02:10:45.246Z,15.42
2023-05-04T02:13:14.456Z,15.38
2023-05-04T02:15:42.992Z,15.34
2023-05-04T02:18:10.919Z,15.28
2023-05-04T02:20:38.859Z,15.23
2023-05-04T02:23:07.660Z,15.19
2023-05-04T02:25:35.448Z,15.16
2023-05-04T02:28:03.226Z,15.14
2023-05-04T02:30:32.928Z,15.12
2023-05-04T02:33:00.518Z,15.16
2023-05-04T02:35:28.361Z,15.14
2023-05-04T02:37:56.695Z,15.11
2023-05-04T02:40:24.478Z,15.07
2023-05-04T02:42:52.281Z,15.03
2023-05-04T02:45:20.700Z,15.01
2023-05-04T02:47:49.866Z,14.99
2023-05-04T02:50:17.692Z,14.95
2023-05-04T02:52:45.500Z,14.90
2023-05-04T02:55:13.328Z,14.85
2023-05-04T02:57:41.116Z,14.81
2023-05-04T03:00:10.428Z,14.81
2023-05-04T03:02:38.281Z,14.77
2023-05-04T03:05:08.085Z,14.76
2023-05-04T03:07:36.296Z,14.72
2023-05-04T03:10:04.562Z,14.67
2023-05-04T03:12:32.554Z,14.66
2023-05-04T03:15:00.991Z,14.62
2023-05-04T03:17:28.853Z,14.59
2023-05-04T03:19:56.749Z,14.57
2023-05-04T03:22:26.790Z,14.56
2023-05-04T03:24:54.733Z,14.52
2023-05-04T03:27:22.533Z,14.50
2023-05-04T03:29:50.858Z,14.47
2023-05-04T03:32:18.622Z,14.44
2023-05-04T03:34:46.819Z,14.41
2023-05-04T03:37:15.142Z,14.41
2023-05-04T03:39:44.290Z,14.39
2023-05-04T03:42:12.417Z,14.37
2023-05-04T03:44:41.348Z,14.36
2023-05-04T03:47:09.111Z,14.35
2023-05-04T03:49:37.102Z,14.34
2023-05-04T03:52:05.640Z,14.32
2023-05-04T03:54:33.398Z,14.29
2023-05-04T03:57:04.437Z,14.28
2023-05-04T03:59:32.931Z,14.25
2023-05-04T04:02:01.325Z,14.23
2023-05-04T04:04:29.160Z,14.22
2023-05-04T04:06:57.582Z,14.22
2023-05-04T04:09:25.451Z,14.20
2023-05-04T04:11:53.258Z,14.19
2023-05-04T04:14:22.839Z,14.22
2023-05-04T04:16:50.610Z,14.20
2023-05-04T04:19:18.389Z,14.20
2023-05-04T04:21:46.776Z,14.20
2023-05-04T04:24:14.716Z,14.22
2023-05-04T04:26:42.458Z,14.20
2023-05-04T04:29:10.617Z,14.26
2023-05-04T04:31:40.407Z,14.34
2023-05-04T04:34:08.272Z,14.44
2023-05-04T04:36:36.474Z,14.59
2023-05-04T04:39:05.921Z,14.75
2023-05-04T04:41:33.756Z,14.87
2023-05-04T04:44:02.905Z,15.02
2023-05-04T04:46:30.866Z,15.13
2023-05-04T04:49:00.023Z,15.21
2023-05-04T04:51:28.341Z,15.22
2023-05-04T04:53:56.149Z,15.21
2023-05-04T04:56:23.935Z,15.18
2023-05-04T04:58:52.286Z,15.16
2023-05-04T05:01:20.070Z,15.11
2023-05-04T05:03:49.154Z,15.05
2023-05-04T05:06:18.764Z,15.03
2023-05-04T05:08:46.743Z,14.99
2023-05-04T05:11:14.502Z,14.95
2023-05-04T05:13:42.851Z,14.92
2023-05-04T05:16:10.750Z,14.89
2023-05-04T05:18:38.548Z,14.87
2023-05-04T05:21:07.883Z,14.84
2023-05-04T05:23:37.044Z,14.85
2023-05-04T05:26:04.857Z,14.83
2023-05-04T05:28:33.449Z,14.83
2023-05-04T05:31:01.278Z,14.84
2023-05-04T05:33:29.075Z,14.83
2023-05-04T05:35:57.501Z,14.84
2023-05-04T05:38:26.776Z,14.85
2023-05-04T05:40:56.156Z,14.87
2023-05-04T05:43:24.640Z,14.87
2023-05-04T05:45:52.459Z,14.86
2023-05-04T05:48:20.282Z,14.89
2023-05-04T05:50:48.748Z,14.89
2023-05-04T05:53:16.545Z,14.91
2023-05-04T05:55:44.307Z,14.93
2023-05-04T05:58:14.414Z,14.95
2023-05-04T06:00:42.394Z,14.97
2023-05-04T06:03:10.461Z,15.01
2023-05-04T06:05:38.890Z,15.05
2023-05-04T06:08:06.759Z,15.09
2023-05-04T06:10:35.008Z,15.15
2023-05-04T06:13:03.462Z,15.21
2023-05-04T06:15:32.630Z,15.28
2023-05-04T06:18:00.505Z,15.32
2023-05-04T06:20:29.829Z,15.40
2023-05-04T06:22:58.280Z,15.49
2023-05-04T06:25:26.074Z,15.57
2023-05-04T06:27:54.375Z,15.65
2023-05-04T06:30:24.390Z,15.74
2023-05-04T06:32:53.611Z,15.83
2023-05-04T06:35:22.030Z,15.92
2023-05-04T06:40:22.905Z,16.11
2023-05-04T06:42:50.861Z,16.21
2023-05-04T06:45:19.180Z,16.30
2023-05-04T06:47:47.812Z,16.39
2023-05-04T06:50:17.235Z,16.49
2023-05-04T06:52:46.478Z,16.57
2023-05-04T06:55:15.056Z,16.67
2023-05-04T06:57:42.856Z,16.75
2023-05-04T07:00:11.874Z,16.82
2023-05-04T07:02:40.177Z,16.92
2023-05-04T07:05:08.750Z,17.00
2023-05-04T07:07:38.176Z,17.09
2023-05-04T07:10:07.343Z,17.17
2023-05-04T07:12:35.227Z,17.27
2023-05-04T07:15:03.426Z,17.34
2023-05-04T07:17:34.009Z,17.44
2023-05-04T07:20:03.358Z,17.52
2023-05-04T07:22:31.250Z,17.64
2023-05-04T07:25:01.147Z,17.72
2023-05-04T07:27:29.035Z,17.80
2023-05-04T07:29:57.199Z,17.89
2023-05-04T07:32:25.789Z,17.89
2023-05-04T07:34:53.628Z,17.99
2023-05-04T07:37:21.409Z,18.15
2023-05-04T07:39:49.815Z,18.26
2023-05-04T07:42:19.020Z,18.34
2023-05-04T07:44:47.041Z,18.44
2023-05-04T07:47:15.202Z,18.54
2023-05-04T07:49:43.013Z,18.64
2023-05-04T07:52:11.060Z,18.76
2023-05-04T07:54:39.383Z,18.87
2023-05-04T07:57:07.267Z,19.00
2023-05-04T07:59:36.690Z,19.15
2023-05-04T08:02:05.117Z,19.29
2023-05-04T08:04:33.048Z,19.44
2023-05-04T08:07:01.235Z,19.57
2023-05-04T08:09:29.723Z,19.73
2023-05-04T08:11:57.543Z,19.85
2023-05-04T08:14:25.312Z,19.97
2023-05-04T08:16:55.433Z,20.10
2023-05-04T08:19:23.703Z,20.22
2023-05-04T08:21:51.579Z,20.35
2023-05-04T08:24:20.189Z,20.49
2023-05-04T08:26:59.697Z,20.62
2023-05-04T08:29:37.776Z,20.78
2023-05-04T08:32:09.295Z,20.92
2023-05-04T08:34:39.270Z,21.05
2023-05-04T08:37:07.466Z,21.16
2023-05-04T08:39:35.650Z,21.24
2023-05-04T08:42:04.595Z,21.36
2023-05-04T08:44:32.758Z,21.44
2023-05-04T08:47:04.907Z,21.55
2023-05-04T08:49:34.329Z,21.66
2023-05-04T08:52:05.536Z,21.75
2023-05-04T08:54:35.221Z,21.86
2023-05-04T08:57:06.144Z,21.97
2023-05-04T08:59:34.668Z,22.04
2023-05-04T09:02:04.004Z,22.12
2023-05-04T09:04:32.510Z,22.23
2023-05-04T09:07:01.890Z,22.30
2023-05-04T09:09:31.410Z,22.35
2023-05-04T09:12:00.223Z,22.38
2023-05-04T09:14:34.509Z,22.43
2023-05-04T09:17:03.296Z,22.47
2023-05-04T09:19:34.656Z,22.52
2023-05-04T09:22:15.153Z,22.57
2023-05-04T09:24:42.938Z,22.62
2023-05-04T09:27:11.790Z,22.68
2023-05-04T09:29:41.250Z,22.71
2023-05-04T09:32:14.627Z,22.78
2023-05-04T09:34:52.801Z,22.86
2023-05-04T09:37:22.993Z,22.91
2023-05-04T09:39:55.876Z,22.93
2023-05-04T09:42:24.467Z,22.98
2023-05-04T09:45:03.873Z,23.03
2023-05-04T09:47:36.840Z,23.06
2023-05-04T09:50:19.902Z,23.13
2023-05-04T09:52:50.808Z,23.17
2023-05-04T09:55:20.354Z,23.20
2023-05-04T09:57:50.136Z,23.26
2023-05-04T10:00:20.056Z,23.32
2023-05-04T10:02:49.466Z,23.36
2023-05-04T10:05:18.739Z,23.43
2023-05-04T10:07:47.643Z,23.53
2023-05-04T10:10:16.954Z,23.58
2023-05-04T10:12:46.051Z,23.62
2023-05-04T10:15:16.373Z,23.65
2023-05-04T10:17:56.343Z,23.68
2023-05-04T10:20:40.409Z,23.76
2023-05-04T10:23:48.010Z,23.81
2023-05-04T10:26:54.153Z,23.90
2023-05-04T10:29:24.087Z,23.95
2023-05-04T10:31:53.478Z,23.99
2023-05-04T10:34:25.457Z,24.06
2023-05-04T10:36:53.582Z,24.14
2023-05-04T10:39:22.203Z,24.19
2023-05-04T10:42:05.323Z,24.25
2023-05-04T10:44:35.446Z,24.34
2023-05-04T10:47:06.251Z,24.39
2023-05-04T10:49:34.904Z,24.43
2023-05-04T10:52:11.061Z,24.51
2023-05-04T10:54:39.901Z,24.56
2023-05-04T10:57:10.238Z,24.60
2023-05-04T10:59:39.473Z,24.67
2023-05-04T11:02:09.657Z,24.74
2023-05-04T11:04:38.740Z,24.79
2023-05-04T11:07:09.019Z,24.86
2023-05-04T11:09:38.732Z,24.91
2023-05-04T11:12:11.311Z,24.98
2023-05-04T11:14:42.975Z,25.06
2023-05-04T11:17:27.725Z,25.11
2023-05-04T11:19:56.644Z,25.18
2023-05-04T11:22:25.163Z,25.24
2023-05-04T11:24:54.324Z,25.30
2023-05-04T11:27:28.154Z,25.37
2023-05-04T11:30:00.309Z,25.44
2023-05-04T11:32:39.013Z,25.46
2023-05-04T11:35:10.212Z,25.53
2023-05-04T11:37:42.582Z,25.60
2023-05-04T11:40:15.124Z,25.66
2023-05-04T11:42:45.782Z,25.74
2023-05-04T11:45:18.093Z,25.82
2023-05-04T11:47:47.950Z,25.88
2023-05-04T11:50:19.202Z,25.95
2023-05-04T11:52:48.245Z,25.99
2023-05-04T11:55:27.117Z,26.05
2023-05-04T11:58:00.636Z,26.11
2023-05-04T12:00:40.136Z,26.16
2023-05-04T12:03:09.573Z,26.19
2023-05-04T12:05:38.369Z,26.19
2023-05-04T12:08:07.446Z,26.27
2023-05-04T12:10:36.180Z,26.30
2023-05-04T12:13:16.645Z,26.37
2023-05-04T12:15:45.406Z,26.40
2023-05-04T12:18:22.252Z,26.45
2023-05-04T12:20:50.553Z,26.47
2023-05-04T12:23:18.453Z,26.50
2023-05-04T12:25:57.357Z,26.53
2023-05-04T12:28:31.502Z,26.54
2023-05-04T12:30:59.955Z,26.60
2023-05-04T12:33:28.177Z,26.63
2023-05-04T12:35:56.610Z,26.63
2023-05-04T12:38:25.482Z,26.66
2023-05-04T12:40:53.658Z,26.57
2023-05-04T12:43:23.210Z,26.68
2023-05-04T12:45:53.743Z,26.72
2023-05-04T12:48:22.272Z,26.75
2023-05-04T12:50:51.874Z,26.79
2023-05-04T12:53:22.162Z,26.81
2023-05-04T12:55:50.026Z,26.85
2023-05-04T12:58:18.199Z,26.87
2023-05-04T13:00:46.430Z,26.90
2023-05-04T13:03:19.326Z,26.93
2023-05-04T13:05:47.453Z,26.93
2023-05-04T13:08:15.221Z,26.93
2023-05-04T13:10:43.179Z,26.91
2023-05-04T13:13:10.989Z,26.90
2023-05-04T13:15:39.846Z,26.87
2023-05-04T13:18:08.038Z,26.82
2023-05-04T13:20:37.209Z,26.81
2023-05-04T13:23:04.996Z,26.79
2023-05-04T13:25:33.026Z,26.80
2023-05-04T13:28:00.779Z,26.79
2023-05-04T13:30:28.561Z,26.82
2023-05-04T13:32:56.888Z,26.85
2023-05-04T13:35:24.968Z,26.88
2023-05-04T13:37:54.112Z,26.91
2023-05-04T13:40:22.454Z,26.97
2023-05-04T13:42:50.249Z,26.98
2023-05-04T13:45:19.640Z,27.00
2023-05-04T13:47:48.152Z,27.04
2023-05-04T13:50:16.184Z,27.07
2023-05-04T13:52:43.953Z,27.10
2023-05-04T13:55:14.920Z,27.19
2023-05-04T13:57:42.681Z,27.22
2023-05-04T14:00:12.386Z,27.25
2023-05-04T14:02:40.889Z,27.30
2023-05-04T14:05:09.424Z,27.33
2023-05-04T14:07:37.641Z,27.39
2023-05-04T14:10:06.646Z,27.43
2023-05-04T14:12:35.905Z,27.52
2023-05-04T14:15:04.465Z,27.58
2023-05-04T14:17:32.969Z,27.65
2023-05-04T14:20:01.015Z,27.69
2023-05-04T14:22:29.235Z,27.73
2023-05-04T14:24:57.767Z,27.78
2023-05-04T14:27:27.471Z,27.80
2023-05-04T14:29:58.541Z,27.83
2023-05-04T14:32:26.467Z,27.88
2023-05-04T14:34:54.418Z,27.91
2023-05-04T14:37:22.694Z,27.94
2023-05-04T14:39:50.445Z,27.96
2023-05-04T14:42:18.233Z,27.97
2023-05-04T14:44:46.521Z,27.96
2023-05-04T14:47:15.659Z,27.97
2023-05-04T14:49:43.413Z,27.96
2023-05-04T14:52:11.834Z,27.96
2023-05-04T14:54:39.640Z,27.95
2023-05-04T14:57:09.034Z,27.95
2023-05-04T14:59:38.034Z,27.91
2023-05-04T15:02:08.207Z,27.91
2023-05-04T15:04:38.075Z,27.90
2023-05-04T15:07:06.028Z,27.87
2023-05-04T15:09:33.839Z,27.90
2023-05-04T15:12:02.389Z,27.91
2023-05-04T15:14:30.774Z,27.93
2023-05-04T15:16:58.615Z,27.94
2023-05-04T15:19:27.240Z,27.96
2023-05-04T15:21:56.527Z,27.99
2023-05-04T15:24:24.122Z,28.02
2023-05-04T15:26:52.516Z,28.01
2023-05-04T15:29:20.377Z,28.04
2023-05-04T15:31:48.223Z,28.03
2023-05-04T15:34:18.471Z,28.05
2023-05-04T15:36:46.751Z,28.04
2023-05-04T15:39:16.086Z,28.03
2023-05-04T15:41:43.992Z,28.07
2023-05-04T15:44:11.827Z,28.04
2023-05-04T15:46:39.673Z,28.02
2023-05-04T15:49:07.884Z,27.99
2023-05-04T15:51:35.694Z,27.92
2023-05-04T15:54:04.176Z,27.95
2023-05-04T15:56:33.953Z,27.93
2023-05-04T15:59:01.941Z,27.90
2023-05-04T16:01:29.875Z,27.88
2023-05-04T16:04:00.206Z,27.85
2023-05-04T16:06:28.700Z,27.84
2023-05-04T16:08:56.662Z,27.83
2023-05-04T16:11:24.971Z,27.81
2023-05-04T16:13:54.222Z,27.80
2023-05-04T16:16:21.790Z,27.83
2023-05-04T16:18:50.094Z,27.82
2023-05-04T16:21:17.958Z,27.79
2023-05-04T16:23:45.861Z,27.78
2023-05-04T16:26:15.771Z,27.76
2023-05-04T16:28:45.240Z,27.75
2023-05-04T16:31:14.537Z,27.72
2023-05-04T16:33:47.774Z,27.71
2023-05-04T16:36:15.960Z,27.70
2023-05-04T16:38:43.776Z,27.70
2023-05-04T16:41:11.786Z,27.69
2023-05-04T16:43:39.549Z,27.67
2023-05-04T16:46:07.371Z,27.65
2023-05-04T16:48:37.561Z,27.63
2023-05-04T16:51:06.066Z,27.62
2023-05-04T16:53:34.048Z,27.59
2023-05-04T16:56:02.026Z,27.59
2023-05-04T16:58:30.274Z,27.57
2023-05-04T17:00:58.427Z,27.54
2023-05-04T17:03:26.532Z,27.52
2023-05-04T17:05:55.796Z,27.46
2023-05-04T17:08:24.981Z,27.43
2023-05-04T17:10:52.967Z,27.43
2023-05-04T17:13:20.858Z,27.40
2023-05-04T17:15:48.774Z,27.36
2023-05-04T17:18:16.821Z,27.33
2023-05-04T17:20:44.601Z,27.32
2023-05-04T17:23:14.131Z,27.29
2023-05-04T17:25:42.197Z,27.24
2023-05-04T17:28:09.964Z,27.23
2023-05-04T17:30:38.101Z,27.20
2023-05-04T17:33:06.228Z,27.20
2023-05-04T17:35:34.296Z,27.16
2023-05-04T17:38:02.075Z,27.14
2023-05-04T17:40:31.470Z,27.13
2023-05-04T17:43:00.203Z,27.15
2023-05-04T17:45:28.068Z,27.13
2023-05-04T17:47:56.108Z,27.12
2023-05-04T17:50:24.491Z,27.09
2023-05-04T17:52:53.300Z,27.05
2023-05-04T17:55:21.416Z,27.03
2023-05-04T17:57:50.796Z,27.01
2023-05-04T18:00:18.549Z,27.02
2023-05-04T18:02:47.213Z,27.00
2023-05-04T18:05:15.065Z,26.93
2023-05-04T18:07:42.983Z,26.90
2023-05-04T18:10:11.982Z,26.86
2023-05-04T18:12:39.822Z,26.82
2023-05-04T18:15:10.758Z,26.79
2023-05-04T18:17:38.931Z,26.73
2023-05-04T18:20:09.032Z,26.70
2023-05-04T18:22:37.706Z,26.66
2023-05-04T18:25:07.006Z,26.62
2023-05-04T18:27:34.898Z,26.57
2023-05-04T18:30:03.374Z,26.52
2023-05-04T18:32:32.902Z,26.50
2023-05-04T18:35:01.428Z,26.46
2023-05-04T18:37:30.715Z,26.41
2023-05-04T18:39:58.786Z,26.35
2023-05-04T18:42:27.109Z,26.31
2023-05-04T18:44:56.135Z,26.26
2023-05-04T18:47:24.425Z,26.24
2023-05-04T18:49:56.182Z,26.22
2023-05-04T18:52:25.143Z,26.15
2023-05-04T18:54:52.910Z,26.12
2023-05-04T18:57:20.701Z,26.09
2023-05-04T18:59:48.681Z,26.05
2023-05-04T19:02:17.374Z,26.01
2023-05-04T19:04:46.805Z,25.98
2023-05-04T19:07:17.368Z,25.96
2023-05-04T19:09:46.348Z,25.93
2023-05-04T19:12:15.427Z,25.89
2023-05-04T19:14:44.386Z,25.88
2023-05-04T19:17:14.536Z,25.84
2023-05-04T19:19:42.344Z,25.81
2023-05-04T19:22:11.664Z,25.79
2023-05-04T19:24:41.224Z,25.75
2023-05-04T19:27:09.466Z,25.70
2023-05-04T19:29:37.512Z,25.71
2023-05-04T19:32:19.721Z,25.68
2023-05-04T19:34:51.738Z,25.66
2023-05-04T19:37:19.557Z,25.62
2023-05-04T19:39:48.712Z,25.58
2023-05-04T19:42:17.118Z,25.55
2023-05-04T19:44:44.967Z,25.51
2023-05-04T19:47:12.804Z,25.48
2023-05-04T19:49:41.066Z,25.44
2023-05-04T19:52:08.868Z,25.41
2023-05-04T19:54:38.292Z,25.38
2023-05-04T19:57:08.130Z,25.35
2023-05-04T19:59:35.995Z,25.31
2023-05-04T20:02:03.971Z,25.28
2023-05-04T20:04:32.550Z,25.23
2023-05-04T20:07:00.314Z,25.21
2023-05-04T20:09:28.944Z,25.19
2023-05-04T20:11:57.436Z,25.15
2023-05-04T20:14:26.615Z,25.13
2023-05-04T20:16:55.853Z,25.11
2023-05-04T20:19:24.201Z,25.09
2023-05-04T20:21:51.964Z,25.09
2023-05-04T20:24:19.770Z,25.07
2023-05-04T20:26:47.736Z,25.07
2023-05-04T20:29:15.494Z,25.06
2023-05-04T20:31:44.717Z,25.05
2023-05-04T20:34:12.712Z,25.02
2023-05-04T20:36:40.476Z,25.02
2023-05-04T20:39:08.236Z,24.99
2023-05-04T20:41:36.197Z,24.96
2023-05-04T20:44:04.358Z,24.94
2023-05-04T20:46:32.826Z,24.91
2023-05-04T20:49:02.991Z,24.89
2023-05-04T20:51:31.110Z,24.80
2023-05-04T20:53:58.921Z,24.84
2023-05-04T20:56:27.006Z,24.83
2023-05-04T20:58:55.215Z,24.82
2023-05-04T21:01:23.160Z,24.80
2023-05-04T21:03:51.323Z,24.80
2023-05-04T21:06:20.979Z,24.79
2023-05-04T21:08:48.772Z,24.76
2023-05-04T21:11:16.863Z,24.75
2023-05-04T21:13:44.645Z,24.72
2023-05-04T21:16:12.967Z,24.70
2023-05-04T21:18:41.088Z,24.68
2023-05-04T21:21:09.087Z,24.66
2023-05-04T21:23:38.327Z,24.63
2023-05-04T21:26:07.773Z,24.55
2023-05-04T21:28:35.399Z,24.63
2023-05-04T21:31:09.395Z,24.61
2023-05-04T21:33:37.396Z,24.54
2023-05-04T21:36:12.487Z,24.51
2023-05-04T21:38:42.654Z,24.48
2023-05-04T21:41:12.563Z,24.42
2023-05-04T21:43:40.412Z,24.39
2023-05-04T21:46:08.219Z,24.36
2023-05-04T21:48:36.993Z,24.33
2023-05-04T21:51:05.107Z,24.28
2023-05-04T21:53:34.047Z,24.25
2023-05-04T21:56:08.835Z,24.25
2023-05-04T21:58:37.265Z,24.20
2023-05-04T22:01:05.671Z,24.18
2023-05-04T22:03:34.230Z,24.15
2023-05-04T22:06:02.166Z,24.11
2023-05-04T22:08:30.068Z,24.09
2023-05-04T22:10:59.266Z,24.07
2023-05-04T22:13:28.524Z,24.06
2023-05-04T22:15:56.321Z,24.02
2023-05-04T22:18:24.754Z,23.99
2023-05-04T22:20:52.529Z,23.97
2023-05-04T22:23:20.421Z,23.95
2023-05-04T22:25:48.683Z,23.92
2023-05-04T22:28:16.465Z,23.91
2023-05-04T22:30:45.662Z,23.88
2023-05-04T22:33:13.556Z,23.83
2023-05-04T22:35:41.377Z,23.80
2023-05-04T22:38:09.458Z,23.75
2023-05-04T22:40:40.546Z,23.68
2023-05-04T22:43:08.523Z,23.62
2023-05-04T22:45:36.681Z,23.56
2023-05-04T22:48:06.343Z,23.53
2023-05-04T22:50:34.346Z,23.46
2023-05-04T22:53:02.157Z,23.41
2023-05-04T22:55:30.676Z,23.39
2023-05-04T22:57:58.504Z,23.34
2023-05-04T23:00:26.602Z,23.29
2023-05-04T23:02:55.073Z,23.18
2023-05-04T23:05:24.478Z,23.21
2023-05-04T23:07:52.555Z,23.18
2023-05-04T23:10:21.213Z,23.16
2023-05-04T23:12:49.022Z,23.15
2023-05-04T23:15:18.051Z,23.12
2023-05-04T23:17:46.480Z,23.09
2023-05-04T23:20:14.489Z,23.06
2023-05-04T23:22:43.672Z,23.04
2023-05-04T23:25:12.203Z,23.03
2023-05-04T23:30:09.205Z,22.99
2023-05-04T23:32:38.012Z,22.99
2023-05-04T23:35:07.494Z,22.99
2023-05-04T23:37:35.355Z,22.99
2023-05-04T23:40:05.787Z,22.99
2023-05-04T23:42:33.650Z,22.98
2023-05-04T23:45:01.457Z,22.96
2023-05-04T23:47:29.771Z,22.95
2023-05-04T23:49:57.580Z,22.95
2023-05-04T23:52:25.366Z,22.92
2023-05-04T23:54:55.104Z,22.90
2023-05-04T23:57:24.266Z,22.89
2023-05-04T23:59:53.728Z,22.87
